Time;durP1;ratioP1;P1;durP2;ratioP2;P2;SDS_P1;SDS_P2;PMS_P1;PMS_P2;Temp;Humidity;BMP_temperature;BMP_pressure;BME280_temperature;BME280_humidity;BME280_pressure;Samples;Min_cycle;Max_cycle;Signal;HPM_P1;HPM_P2
2023/12/23 00:01:57;;;;;;;;;;;;;;;;;;;;;
2023/12/23 00:04:50;;;;;;;4.83;0.60;;;7.00;99.90;;;;;;5054509;28;20210;-43
2023/12/23 00:07:20;;;;;;;5.33;1.10;;;7.00;99.90;;;;;;5075882;28;20196;-44
2023/12/23 00:09:49;;;;;;;3.13;0.70;;;7.00;99.90;;;;;;5058100;28;20299;-43
2023/12/23 00:12:18;;;;;;;4.83;0.90;;;7.00;99.90;;;;;;5058008;28;20659;-43
2023/12/23 00:15:00;;;;;;;4.70;0.60;;;7.00;99.90;;;;;;5059627;28;20289;-42
2023/12/23 00:17:33;;;;;;;4.43;0.93;;;7.00;99.90;;;;;;5060995;28;20536;-44
2023/12/23 00:20:03;;;;;;;2.20;0.73;;;7.00;99.90;;;;;;5060536;28;20286;-42
2023/12/23 00:22:36;;;;;;;2.00;0.80;;;7.00;99.90;;;;;;5062563;28;20188;-42
2023/12/23 00:25:06;;;;;;;3.77;0.90;;;7.00;99.90;;;;;;5059606;28;20184;-43
2023/12/23 00:27:38;;;;;;;2.70;0.77;;;7.00;99.90;;;;;;5058034;28;20176;-43
2023/12/23 00:30:35;;;;;;;3.70;1.07;;;7.00;99.90;;;;;;5075988;28;20204;-42
2023/12/23 00:33:09;;;;;;;1.47;0.57;;;7.00;99.90;;;;;;5076125;28;20167;-42
2023/12/23 00:35:48;;;;;;;1.93;0.67;;;7.00;99.90;;;;;;5057949;28;20199;-43
2023/12/23 00:38:18;;;;;;;2.37;0.73;;;7.00;99.90;;;;;;5075984;28;20233;-44
2023/12/23 00:40:50;;;;;;;2.47;0.87;;;7.00;99.90;;;;;;5075806;28;20211;-44
2023/12/23 00:43:21;;;;;;;2.37;0.63;;;7.00;99.90;;;;;;5057428;28;20199;-44
2023/12/23 00:45:59;;;;;;;6.40;0.80;;;7.00;99.90;;;;;;5057882;28;20179;-43
2023/12/23 00:48:34;;;;;;;3.33;1.13;;;7.00;99.90;;;;;;5056987;28;20218;-43
2023/12/23 00:51:08;;;;;;;4.93;0.77;;;7.10;99.90;;;;;;5075586;28;20245;-43
2023/12/23 00:53:39;;;;;;;6.83;0.83;;;7.00;99.90;;;;;;5038375;28;20187;-44
2023/12/23 00:56:20;;;;;;;4.40;1.00;;;7.10;99.90;;;;;;5057696;28;20176;-43
2023/12/23 00:58:52;;;;;;;5.50;1.13;;;7.10;99.90;;;;;;5075702;28;20199;-43
2023/12/23 01:01:26;;;;;;;2.40;0.93;;;7.00;99.90;;;;;;5057451;28;20203;-43
2023/12/23 01:04:00;;;;;;;2.33;0.53;;;7.00;99.90;;;;;;5057527;28;20225;-44
2023/12/23 01:06:30;;;;;;;6.00;1.03;;;7.00;99.90;;;;;;5056576;28;20211;-44
2023/12/23 01:09:25;;;;;;;4.37;1.10;;;7.00;99.90;;;;;;5055003;28;20204;-45
2023/12/23 01:12:08;;;;;;;4.57;0.80;;;7.10;99.90;;;;;;5057195;28;20282;-42
2023/12/23 01:14:40;;;;;;;5.00;1.30;;;7.00;99.90;;;;;;5057276;28;20263;-41
2023/12/23 01:17:46;;;;;;;4.83;1.73;;;7.00;99.90;;;;;;5057473;28;20209;-43
2023/12/23 01:20:28;;;;;;;;;;;;;;;;;;;;;
2023/12/23 01:22:58;;;;;;;4.67;1.87;;;7.00;99.90;;;;;;5059092;28;20194;-43
2023/12/23 01:25:35;;;;;;;4.70;1.70;;;7.00;99.90;;;;;;5057024;28;20180;-43
2023/12/23 01:28:19;;;;;;;4.43;1.20;;;7.00;99.90;;;;;;5072847;28;20314;-44
2023/12/23 01:30:52;;;;;;;3.80;1.20;;;7.00;99.90;;;;;;5055713;28;20243;-43
2023/12/23 01:33:22;;;;;;;9.20;1.30;;;7.10;99.90;;;;;;5057199;28;20203;-44
2023/12/23 01:35:57;;;;;;;4.63;1.27;;;7.00;99.90;;;;;;5056664;28;20184;-43
2023/12/23 01:38:33;;;;;;;6.33;1.50;;;7.00;99.90;;;;;;5056710;28;20579;-44
2023/12/23 01:41:09;;;;;;;3.00;0.97;;;7.00;99.90;;;;;;5074004;28;20211;-44
2023/12/23 01:43:38;;;;;;;1.07;0.80;;;7.00;99.90;;;;;;5040777;28;20186;-43
2023/12/23 01:46:07;;;;;;;7.80;1.80;;;7.10;99.90;;;;;;5055840;28;20679;-43
2023/12/23 01:48:48;;;;;;;4.87;1.10;;;7.10;99.90;;;;;;5056199;28;20230;-43
2023/12/23 01:51:24;;;;;;;5.87;1.20;;;7.10;99.90;;;;;;5056413;28;20195;-42
2023/12/23 01:54:08;;;;;;;8.13;1.10;;;7.20;99.90;;;;;;5074639;28;20246;-43
2023/12/23 01:56:38;;;;;;;3.90;1.20;;;7.20;99.90;;;;;;5058733;28;20159;-43
2023/12/23 01:59:16;;;;;;;6.77;1.80;;;7.20;99.90;;;;;;5056207;28;20198;-43
2023/12/23 02:01:48;;;;;;;7.30;1.37;;;7.20;99.90;;;;;;5056149;28;20821;-44
2023/12/23 02:04:26;;;;;;;8.63;1.60;;;7.30;99.90;;;;;;5056836;28;20544;-44
2023/12/23 02:06:57;;;;;;;4.97;1.33;;;7.40;99.90;;;;;;5056551;28;20609;-43
2023/12/23 02:09:36;;;;;;;;;;;;;;;;;;;;;
2023/12/23 02:12:15;;;;;;;5.13;1.03;;;7.60;99.90;;;;;;5074702;28;20199;-46
2023/12/23 02:15:03;;;;;;;5.80;1.23;;;7.80;99.90;;;;;;5074188;28;20167;-48
2023/12/23 02:17:31;;;;;;;7.50;1.83;;;7.90;99.90;;;;;;5073508;28;20574;-47
2023/12/23 02:19:57;;;;;;;7.13;1.90;;;8.00;99.90;;;;;;5056228;28;20203;-47
2023/12/23 02:22:23;;;;;;;3.33;1.67;;;8.00;99.90;;;;;;5074119;28;20184;-48
2023/12/23 02:24:54;;;;;;;7.90;1.47;;;8.10;99.90;;;;;;5074196;28;20206;-48
2023/12/23 02:27:46;;;;;;;4.37;1.40;;;8.10;99.90;;;;;;5073876;28;20166;-48
2023/12/23 02:30:18;;;;;;;8.07;1.63;;;8.20;99.90;;;;;;5074155;28;20216;-47
2023/12/23 02:32:44;;;;;;;2.73;1.43;;;8.20;99.90;;;;;;5074009;28;20170;-49
2023/12/23 02:35:12;;;;;;;5.33;1.70;;;8.20;99.90;;;;;;5055821;28;20194;-48
2023/12/23 02:37:42;;;;;;;8.87;1.83;;;8.20;99.90;;;;;;5055812;28;20179;-48
2023/12/23 02:40:11;;;;;;;8.87;2.40;;;8.20;99.90;;;;;;5055880;28;20203;-48
2023/12/23 02:42:36;;;;;;;4.40;1.83;;;8.30;99.90;;;;;;5055926;28;20597;-47
2023/12/23 02:45:07;;;;;;;7.93;2.00;;;8.30;99.90;;;;;;5074294;28;20176;-48
2023/12/23 02:47:33;;;;;;;5.03;2.10;;;8.30;99.90;;;;;;5072311;28;20256;-47
2023/12/23 02:49:58;;;;;;;6.53;2.30;;;8.30;99.90;;;;;;5073463;28;20235;-47
2023/12/23 02:52:24;;;;;;;7.87;2.90;;;8.30;99.90;;;;;;5073912;28;20179;-47
2023/12/23 02:54:51;;;;;;;7.03;3.03;;;8.40;99.90;;;;;;5073832;28;20176;-48
2023/12/23 02:57:17;;;;;;;7.47;2.17;;;8.30;99.90;;;;;;5073345;28;20675;-47
2023/12/23 02:59:43;;;;;;;11.93;3.53;;;8.30;99.90;;;;;;5073257;28;20191;-47
2023/12/23 03:02:08;;;;;;;8.77;3.00;;;8.30;99.90;;;;;;5073892;28;20170;-47
2023/12/23 03:04:34;;;;;;;6.73;2.70;;;8.40;99.90;;;;;;5073635;28;20262;-49
2023/12/23 03:07:01;;;;;;;8.37;2.87;;;8.30;99.90;;;;;;5073651;28;20292;-49
2023/12/23 03:09:28;;;;;;;8.13;3.00;;;8.30;99.90;;;;;;5073477;28;20703;-47
2023/12/23 03:11:53;;;;;;;7.40;3.17;;;8.30;99.90;;;;;;5073197;28;20196;-47
2023/12/23 03:14:22;;;;;;;4.80;2.27;;;8.30;99.90;;;;;;5073200;28;20189;-47
2023/12/23 03:16:48;;;;;;;6.90;2.80;;;8.30;99.90;;;;;;5073586;28;20160;-49
2023/12/23 03:19:14;;;;;;;11.40;3.13;;;8.30;99.90;;;;;;5073812;28;20176;-49
2023/12/23 03:21:46;;;;;;;10.20;3.10;;;8.30;99.90;;;;;;5073258;28;20174;-49
2023/12/23 03:24:15;;;;;;;5.53;2.97;;;8.30;99.90;;;;;;5073400;28;20234;-49
2023/12/23 03:26:43;;;;;;;2.57;2.07;;;8.30;99.90;;;;;;5073187;28;20171;-49
2023/12/23 03:29:13;;;;;;;5.67;1.60;;;8.40;99.90;;;;;;5074094;28;20203;-48
2023/12/23 03:31:39;;;;;;;3.53;1.50;;;8.40;99.90;;;;;;5077285;28;20183;-49
2023/12/23 03:34:05;;;;;;;7.73;2.60;;;8.40;99.90;;;;;;5077126;28;20217;-48
2023/12/23 03:36:32;;;;;;;6.17;2.80;;;8.30;99.90;;;;;;5077157;28;20183;-48
2023/12/23 03:39:01;;;;;;;7.10;2.97;;;8.30;99.90;;;;;;5059189;28;20188;-48
2023/12/23 03:41:30;;;;;;;4.60;2.20;;;8.30;99.90;;;;;;5077309;28;20176;-48
2023/12/23 03:43:58;;;;;;;7.93;3.10;;;8.40;99.90;;;;;;5077298;28;20509;-48
2023/12/23 03:46:30;;;;;;;9.33;2.87;;;8.40;99.90;;;;;;5076808;28;20709;-48
2023/12/23 03:48:59;;;;;;;4.87;2.33;;;8.40;99.90;;;;;;5076606;28;20671;-45
2023/12/23 03:51:27;;;;;;;8.90;3.70;;;8.40;99.90;;;;;;5077827;28;20175;-42
2023/12/23 03:54:43;;;;;;;6.23;2.47;;;8.40;99.90;;;;;;5077063;28;20176;-50
2023/12/23 03:57:08;;;;;;;5.37;2.60;;;8.40;99.90;;;;;;5077173;28;20648;-47
2023/12/23 03:59:34;;;;;;;4.03;1.90;;;8.40;99.90;;;;;;5058618;28;20206;-47
2023/12/23 04:02:00;;;;;;;9.90;2.80;;;8.50;99.90;;;;;;5076502;28;20674;-48
2023/12/23 04:04:26;;;;;;;7.00;2.60;;;8.50;99.90;;;;;;5077113;28;20233;-46
2023/12/23 04:06:51;;;;;;;4.30;2.00;;;8.50;99.90;;;;;;5077089;28;20175;-50
2023/12/23 04:09:17;;;;;;;9.53;2.80;;;8.50;99.90;;;;;;5076653;28;20203;-48
2023/12/23 04:11:43;;;;;;;5.47;1.67;;;8.60;99.90;;;;;;5076206;28;20188;-48
2023/12/23 04:14:18;;;;;;;6.30;2.60;;;8.60;99.90;;;;;;5076451;28;20180;-46
2023/12/23 04:16:47;;;;;;;4.30;2.30;;;8.50;99.90;;;;;;5076635;28;20175;-49
2023/12/23 04:19:14;;;;;;;5.37;1.73;;;8.60;99.90;;;;;;5077026;28;20263;-48
2023/12/23 04:21:40;;;;;;;5.87;2.30;;;8.60;99.90;;;;;;5076235;28;20712;-48
2023/12/23 04:24:07;;;;;;;2.83;1.43;;;8.60;99.90;;;;;;5058492;28;20266;-48
2023/12/23 04:26:34;;;;;;;7.83;1.90;;;8.60;99.90;;;;;;5058360;28;20585;-48
2023/12/23 04:29:01;;;;;;;6.03;2.47;;;8.60;99.90;;;;;;5058406;28;20264;-48
2023/12/23 04:31:30;;;;;;;14.63;2.60;;;8.60;99.90;;;;;;5058483;28;20188;-50
2023/12/23 04:33:55;;;;;;;7.90;2.10;;;8.60;99.90;;;;;;5076392;28;20249;-49
2023/12/23 04:36:23;;;;;;;7.97;1.90;;;8.60;99.90;;;;;;5076192;28;20682;-48
2023/12/23 04:38:49;;;;;;;8.40;2.27;;;8.70;99.90;;;;;;5058583;28;20195;-44
2023/12/23 04:41:14;;;;;;;5.73;1.60;;;8.70;99.90;;;;;;5057093;28;20214;-44
2023/12/23 04:43:51;;;;;;;3.47;1.77;;;8.70;99.90;;;;;;5075774;28;20187;-44
2023/12/23 04:46:16;;;;;;;5.57;1.63;;;8.70;99.90;;;;;;5075561;28;20561;-42
2023/12/23 04:48:42;;;;;;;5.97;1.60;;;8.70;99.90;;;;;;5076286;28;20209;-43
2023/12/23 04:51:08;;;;;;;8.50;1.40;;;8.70;99.90;;;;;;5058079;28;20202;-44
2023/12/23 04:53:39;;;;;;;9.77;2.07;;;8.70;99.90;;;;;;5075961;28;20233;-43
2023/12/23 04:56:08;;;;;;;5.40;1.73;;;8.70;99.90;;;;;;5076210;28;20168;-42
2023/12/23 04:58:33;;;;;;;5.10;1.30;;;8.70;99.90;;;;;;5075490;28;20182;-44
2023/12/23 05:00:59;;;;;;;7.70;1.63;;;8.70;99.90;;;;;;5075653;28;20200;-44
2023/12/23 05:03:26;;;;;;;4.80;1.90;;;8.70;99.90;;;;;;5075477;28;20191;-41
2023/12/23 05:05:52;;;;;;;2.27;1.27;;;8.70;99.90;;;;;;5075453;28;20176;-43
2023/12/23 05:08:17;;;;;;;5.07;1.20;;;8.60;99.90;;;;;;5075641;28;20214;-42
2023/12/23 05:14:06;;;;;;;4.80;1.50;;;8.70;99.90;;;;;;5075340;28;20278;-43
2023/12/23 05:16:32;;;;;;;4.93;2.13;;;8.70;99.90;;;;;;5075469;28;20263;-42
2023/12/23 05:19:34;;;;;;;2.33;1.07;;;8.70;99.90;;;;;;5057552;28;20657;-42
2023/12/23 05:22:01;;;;;;;4.60;1.27;;;8.70;99.90;;;;;;5075107;28;20187;-42
2023/12/23 05:24:27;;;;;;;5.47;1.30;;;8.70;99.90;;;;;;5074913;28;20180;-43
2023/12/23 05:26:52;;;;;;;5.37;1.70;;;8.70;99.90;;;;;;5074819;28;20195;-43
2023/12/23 05:29:23;;;;;;;3.67;1.10;;;8.70;99.90;;;;;;5073820;28;20727;-45
2023/12/23 05:31:55;;;;;;;6.27;1.37;;;8.70;99.90;;;;;;5075050;28;20550;-43
2023/12/23 05:37:42;;;;;;;7.63;1.40;;;8.70;99.90;;;;;;5074625;28;20210;-44
2023/12/23 05:40:11;;;;;;;7.10;2.13;;;8.70;99.90;;;;;;5074312;28;20569;-42
2023/12/23 05:42:38;;;;;;;2.23;1.27;;;8.70;99.90;;;;;;5074786;28;20528;-42
2023/12/23 05:45:04;;;;;;;7.73;2.23;;;8.70;99.90;;;;;;5056894;28;20183;-44
2023/12/23 05:47:31;;;;;;;4.17;1.40;;;8.70;99.90;;;;;;5056760;28;20279;-43
2023/12/23 05:49:58;;;;;;;5.27;1.47;;;8.70;99.90;;;;;;5074885;28;20625;-42
2023/12/23 05:52:33;;;;;;;5.13;1.47;;;8.70;99.90;;;;;;5074276;28;20176;-43
2023/12/23 05:54:58;;;;;;;4.13;1.27;;;8.70;99.90;;;;;;5074618;28;20176;-44
2023/12/23 05:57:24;;;;;;;8.70;2.17;;;8.70;99.90;;;;;;5056381;28;20293;-45
2023/12/23 05:59:50;;;;;;;5.67;1.80;;;8.70;99.90;;;;;;5056378;28;20207;-43
2023/12/23 06:02:15;;;;;;;6.00;2.33;;;8.60;99.90;;;;;;5057149;28;20710;-44
2023/12/23 06:04:44;;;;;;;6.00;1.73;;;8.70;99.90;;;;;;5074626;28;20618;-44
2023/12/23 06:07:14;;;;;;;6.50;1.50;;;8.70;99.90;;;;;;5074341;28;20183;-42
2023/12/23 06:09:40;;;;;;;6.67;1.80;;;8.70;99.90;;;;;;5074061;28;20222;-41
2023/12/23 06:12:07;;;;;;;6.30;2.00;;;8.70;99.90;;;;;;5073923;28;20652;-43
2023/12/23 06:14:33;;;;;;;5.47;1.20;;;8.60;99.90;;;;;;5074226;28;20168;-43
2023/12/23 06:17:00;;;;;;;7.53;2.00;;;8.60;99.90;;;;;;5073929;28;20672;-46
2023/12/23 06:19:25;;;;;;;7.47;1.57;;;8.70;99.90;;;;;;5056052;28;20772;-42
2023/12/23 06:21:51;;;;;;;3.03;1.63;;;8.70;99.90;;;;;;5073803;28;20254;-45
2023/12/23 06:24:22;;;;;;;7.33;1.90;;;8.60;99.90;;;;;;5074170;28;20187;-43
2023/12/23 06:26:51;;;;;;;3.33;1.77;;;8.70;99.90;;;;;;5074095;28;20217;-42
2023/12/23 06:29:16;;;;;;;3.10;1.30;;;8.70;99.90;;;;;;5073588;28;20294;-44
2023/12/23 06:31:42;;;;;;;4.87;1.50;;;8.60;99.90;;;;;;5073611;28;20694;-43
2023/12/23 06:34:17;;;;;;;1.20;1.00;;;8.60;99.90;;;;;;5055845;28;20207;-44
2023/12/23 06:36:42;;;;;;;5.40;1.30;;;8.60;99.90;;;;;;5073627;28;20191;-45
2023/12/23 06:39:08;;;;;;;4.13;1.50;;;8.70;99.90;;;;;;5073826;28;20607;-44
2023/12/23 06:41:33;;;;;;;7.80;1.90;;;8.60;99.90;;;;;;5073620;28;20235;-44
2023/12/23 06:44:03;;;;;;;6.23;1.87;;;8.70;99.90;;;;;;5073698;28;20175;-43
2023/12/23 06:46:32;;;;;;;10.43;1.63;;;8.60;99.90;;;;;;5073725;28;20259;-45
2023/12/23 06:48:58;;;;;;;2.17;1.30;;;8.70;99.90;;;;;;5073564;28;20668;-46
2023/12/23 06:51:23;;;;;;;4.13;1.60;;;8.70;99.90;;;;;;5073829;28;20225;-43
2023/12/23 06:53:56;;;;;;;4.80;1.70;;;8.70;99.90;;;;;;5073988;28;20175;-43
2023/12/23 06:56:22;;;;;;;2.53;1.23;;;8.70;99.90;;;;;;5074324;28;20219;-43
2023/12/23 06:58:54;;;;;;;3.93;1.43;;;8.70;99.90;;;;;;5069590;28;20187;-45
2023/12/23 07:01:20;;;;;;;2.77;1.33;;;8.60;99.90;;;;;;5073867;28;20221;-42
2023/12/23 07:03:46;;;;;;;5.07;1.40;;;8.70;99.90;;;;;;5073264;28;20187;-42
2023/12/23 07:06:13;;;;;;;8.37;1.77;;;8.70;99.90;;;;;;5073317;28;20203;-42
2023/12/23 07:08:39;;;;;;;7.37;2.10;;;8.70;99.90;;;;;;5055931;28;20211;-41
2023/12/23 07:11:06;;;;;;;4.93;2.47;;;8.70;99.90;;;;;;5073293;28;20673;-42
2023/12/23 07:13:33;;;;;;;6.70;2.33;;;8.70;99.90;;;;;;5072921;28;20822;-43
2023/12/23 07:15:58;;;;;;;4.33;1.77;;;8.70;99.90;;;;;;5055642;28;20179;-43
2023/12/23 07:18:26;;;;;;;4.03;1.87;;;8.70;99.90;;;;;;5073270;28;20180;-42
2023/12/23 07:20:54;;;;;;;5.37;1.90;;;8.60;99.90;;;;;;5072711;28;20215;-44
2023/12/23 07:23:19;;;;;;;5.63;2.43;;;8.70;99.90;;;;;;5072371;28;20237;-42
2023/12/23 07:25:45;;;;;;;7.17;2.07;;;8.70;99.90;;;;;;5073449;28;20176;-43
2023/12/23 07:28:11;;;;;;;6.07;2.10;;;8.70;99.90;;;;;;5073455;28;20231;-44
2023/12/23 07:30:44;;;;;;;3.93;1.90;;;8.70;99.90;;;;;;5054105;28;20718;-44
2023/12/23 07:33:12;;;;;;;2.40;0.90;;;8.60;99.90;;;;;;5073400;28;20225;-43
2023/12/23 07:35:42;;;;;;;7.80;2.40;;;8.70;99.90;;;;;;5073078;28;20653;-42
2023/12/23 07:38:11;;;;;;;5.57;2.33;;;8.70;99.90;;;;;;5073062;28;20644;-43
2023/12/23 07:40:36;;;;;;;10.20;2.10;;;8.60;99.90;;;;;;5072978;28;20275;-43
2023/12/23 07:43:02;;;;;;;4.13;1.57;;;8.70;99.90;;;;;;5055834;28;20200;-43
2023/12/23 07:45:31;;;;;;;8.37;2.07;;;8.60;99.90;;;;;;5073245;28;20210;-42
2023/12/23 07:47:56;;;;;;;8.73;2.43;;;8.60;99.90;;;;;;5072903;28;20177;-43
2023/12/23 07:50:26;;;;;;;9.00;2.10;;;8.60;99.90;;;;;;5073504;28;20249;-44
2023/12/23 07:52:53;;;;;;;9.70;2.17;;;8.70;99.90;;;;;;5072701;28;20184;-42
2023/12/23 07:55:22;;;;;;;6.70;2.27;;;8.60;99.90;;;;;;5055146;28;20179;-45
2023/12/23 07:57:57;;;;;;;6.20;1.60;;;8.60;99.90;;;;;;5055324;28;20181;-42
2023/12/23 08:00:23;;;;;;;3.63;1.60;;;8.60;99.90;;;;;;5055108;28;20196;-44
2023/12/23 08:02:50;;;;;;;7.93;2.70;;;8.60;99.90;;;;;;5072852;28;20684;-44
2023/12/23 08:05:18;;;;;;;9.57;2.20;;;8.60;99.90;;;;;;5072687;28;20184;-42
2023/12/23 08:07:47;;;;;;;6.53;2.37;;;8.60;99.90;;;;;;5072543;28;20185;-44
2023/12/23 08:10:14;;;;;;;4.87;2.07;;;8.60;99.90;;;;;;5072567;28;20673;-43
2023/12/23 08:12:41;;;;;;;3.27;1.53;;;8.60;99.90;;;;;;5072931;28;20187;-42
2023/12/23 08:15:10;;;;;;;9.80;2.23;;;8.60;99.90;;;;;;5074642;28;20200;-43
2023/12/23 08:20:57;;;;;;;6.27;2.30;;;8.70;99.90;;;;;;5084596;28;20194;-43
2023/12/23 08:23:23;;;;;;;10.17;2.80;;;8.70;99.90;;;;;;5084605;28;20255;-43
2023/12/23 08:26:04;;;;;;;9.13;2.60;;;8.70;99.90;;;;;;5081142;28;20172;-41
2023/12/23 08:28:30;;;;;;;5.17;1.70;;;8.80;99.90;;;;;;5076729;28;20284;-42
2023/12/23 08:31:02;;;;;;;13.17;2.03;;;8.80;99.90;;;;;;5075944;28;20710;-42
2023/12/23 08:33:35;;;;;;;4.97;1.57;;;8.80;99.90;;;;;;5075464;28;20187;-43
2023/12/23 08:36:34;;;;;;;8.13;2.30;;;8.80;99.90;;;;;;5075997;28;20222;-44
2023/12/23 08:39:00;;;;;;;17.83;2.83;;;8.90;99.90;;;;;;5076035;28;20183;-44
2023/12/23 08:41:37;;;;;;;9.50;2.83;;;8.90;99.90;;;;;;5075829;28;20180;-43
2023/12/23 08:44:03;;;;;;;7.40;2.07;;;8.90;99.90;;;;;;5076030;28;20185;-44
2023/12/23 08:47:09;;;;;;;5.70;1.80;;;8.90;99.90;;;;;;5076365;28;20191;-43
2023/12/23 08:53:02;;;;;;;4.70;1.53;;;9.00;99.90;;;;;;5078331;28;20631;-43
2023/12/23 08:55:28;;;;;;;6.30;2.10;;;9.00;99.90;;;;;;5076355;28;20536;-43
2023/12/23 08:58:03;;;;;;;7.60;2.20;;;9.00;99.90;;;;;;5058048;28;20189;-43
2023/12/23 09:00:32;;;;;;;12.83;2.90;;;9.00;99.90;;;;;;5075812;28;20195;-42
2023/12/23 09:03:00;;;;;;;6.40;2.80;;;9.10;99.90;;;;;;5075818;28;20177;-42
2023/12/23 09:05:28;;;;;;;8.67;2.60;;;9.10;99.90;;;;;;5075746;28;20230;-44
2023/12/23 09:07:57;;;;;;;11.87;2.33;;;9.10;99.90;;;;;;5075193;28;20180;-44
2023/12/23 09:10:26;;;;;;;5.67;1.87;;;9.20;99.90;;;;;;5075463;28;20200;-45
2023/12/23 09:12:57;;;;;;;5.93;2.13;;;9.10;99.90;;;;;;5075166;28;20363;-43
2023/12/23 09:15:23;;;;;;;7.03;1.70;;;9.20;99.90;;;;;;5075196;28;20183;-43
2023/12/23 09:17:49;;;;;;;10.67;2.87;;;10.30;99.90;;;;;;5075488;28;20239;-44
2023/12/23 09:20:16;;;;;;;6.77;2.27;;;9.20;99.90;;;;;;5075293;28;20190;-43
2023/12/23 09:22:41;;;;;;;2.87;1.57;;;9.20;99.90;;;;;;5075582;28;20210;-45
2023/12/23 09:25:10;;;;;;;7.70;1.73;;;9.20;99.90;;;;;;5075301;28;20636;-44
2023/12/23 09:27:36;;;;;;;5.30;1.70;;;9.20;99.90;;;;;;5074584;28;20180;-44
2023/12/23 09:30:04;;;;;;;7.17;2.37;;;9.30;99.90;;;;;;5075216;28;20207;-43
2023/12/23 09:32:31;;;;;;;6.63;1.87;;;9.30;99.90;;;;;;5076337;28;20204;-42
2023/12/23 09:34:58;;;;;;;4.83;2.37;;;9.30;99.90;;;;;;5058205;28;20187;-43
2023/12/23 09:37:39;;;;;;;7.70;1.97;;;9.30;99.90;;;;;;5075461;28;20530;-42
2023/12/23 09:40:07;;;;;;;12.70;2.27;;;9.40;99.90;;;;;;5075477;28;20210;-43
2023/12/23 09:42:34;;;;;;;8.70;2.33;;;9.40;99.90;;;;;;5056867;28;20218;-42
2023/12/23 09:45:01;;;;;;;4.63;1.70;;;9.40;99.90;;;;;;5075185;28;20198;-44
2023/12/23 09:47:27;;;;;;;5.63;2.20;;;9.30;99.90;;;;;;5074744;28;20176;-43
2023/12/23 09:50:21;;;;;;;7.20;1.37;;;9.30;99.90;;;;;;5074630;28;20208;-44
2023/12/23 09:52:52;;;;;;;3.83;1.83;;;9.30;99.90;;;;;;5074388;28;20168;-42
2023/12/23 09:55:18;;;;;;;3.63;1.70;;;9.30;99.90;;;;;;5057398;28;20193;-43
2023/12/23 09:57:44;;;;;;;10.83;2.80;;;9.20;99.90;;;;;;5074309;28;20201;-42
2023/12/23 10:00:11;;;;;;;8.10;2.17;;;9.20;99.90;;;;;;5074390;28;20227;-43
2023/12/23 10:02:47;;;;;;;2.63;1.70;;;9.20;99.90;;;;;;5073508;28;20175;-44
2023/12/23 10:05:13;;;;;;;4.63;1.83;;;9.20;99.90;;;;;;5074334;28;20233;-43
2023/12/23 10:07:39;;;;;;;13.73;2.10;;;9.20;99.90;;;;;;5074116;28;20181;-42
2023/12/23 10:10:23;;;;;;;3.87;1.83;;;9.20;99.90;;;;;;5073908;28;20282;-41
2023/12/23 10:12:58;;;;;;;3.57;1.60;;;9.20;99.90;;;;;;5034454;28;20270;-43
2023/12/23 10:15:37;;;;;;;5.60;1.60;;;9.10;99.90;;;;;;5074294;28;20212;-43
2023/12/23 10:18:06;;;;;;;10.67;2.43;;;9.10;99.90;;;;;;5074598;28;20192;-41
2023/12/23 10:20:32;;;;;;;5.20;2.07;;;9.10;99.90;;;;;;5073880;28;20200;-44
2023/12/23 10:23:01;;;;;;;5.03;1.83;;;9.10;99.90;;;;;;5056021;28;20179;-42
2023/12/23 10:25:27;;;;;;;7.83;2.27;;;9.10;99.90;;;;;;5073834;28;20643;-43
2023/12/23 10:27:57;;;;;;;6.33;2.07;;;9.00;99.90;;;;;;5073901;28;20205;-44
2023/12/23 10:30:25;;;;;;;2.60;1.67;;;9.10;99.90;;;;;;5055811;28;20333;-43
2023/12/23 10:32:54;;;;;;;4.90;2.07;;;9.10;99.90;;;;;;5073740;28;20182;-43
2023/12/23 10:35:20;;;;;;;5.23;2.10;;;9.00;99.90;;;;;;5072731;28;20197;-43
2023/12/23 10:37:53;;;;;;;2.93;1.10;;;9.00;99.90;;;;;;5073606;28;20166;-43
2023/12/23 10:40:26;;;;;;;9.03;1.90;;;9.00;99.90;;;;;;5072954;28;20196;-44
2023/12/23 10:42:58;;;;;;;2.77;1.53;;;9.00;99.90;;;;;;5073626;28;20185;-43
2023/12/23 10:45:30;;;;;;;9.03;1.67;;;9.00;99.90;;;;;;5073590;28;20180;-43
2023/12/23 10:48:06;;;;;;;7.40;2.30;;;9.00;99.90;;;;;;5073708;28;20179;-43
2023/12/23 10:50:37;;;;;;;5.23;1.70;;;9.00;99.90;;;;;;5073335;28;20195;-45
2023/12/23 10:53:09;;;;;;;2.23;1.27;;;9.00;99.90;;;;;;5055619;28;20172;-43
2023/12/23 10:55:39;;;;;;;7.27;2.17;;;9.00;99.90;;;;;;5073987;28;20609;-41
2023/12/23 10:58:12;;;;;;;6.23;1.77;;;9.00;99.90;;;;;;5073512;28;20540;-43
2023/12/23 11:00:41;;;;;;;2.67;1.30;;;9.10;99.90;;;;;;5055836;28;20192;-43
2023/12/23 11:03:08;;;;;;;5.53;1.70;;;9.00;99.90;;;;;;5073563;28;20174;-43
2023/12/23 11:05:44;;;;;;;3.57;1.47;;;9.10;99.90;;;;;;5073348;28;20171;-42
2023/12/23 11:08:19;;;;;;;5.03;1.50;;;9.10;99.90;;;;;;5073405;28;20278;-44
2023/12/23 11:10:49;;;;;;;5.57;1.97;;;9.10;99.90;;;;;;5073291;28;20666;-44
2023/12/23 11:13:18;;;;;;;4.23;1.80;;;9.20;99.90;;;;;;5073379;28;20569;-43
2023/12/23 11:15:46;;;;;;;3.50;1.20;;;9.20;99.90;;;;;;5055365;28;20175;-45
2023/12/23 11:18:15;;;;;;;7.37;1.80;;;9.30;99.90;;;;;;5055317;28;20193;-42
2023/12/23 11:20:47;;;;;;;9.17;1.40;;;9.30;99.90;;;;;;5073401;28;20196;-42
2023/12/23 11:23:36;;;;;;;5.73;1.63;;;9.30;99.90;;;;;;5055108;28;20210;-43
2023/12/23 11:26:03;;;;;;;4.00;1.20;;;9.40;99.90;;;;;;5055589;28;20185;-43
2023/12/23 11:28:36;;;;;;;4.40;1.30;;;9.40;99.90;;;;;;5055925;28;20595;-44
2023/12/23 11:31:20;;;;;;;6.73;1.50;;;9.40;99.90;;;;;;5074687;28;20199;-43
2023/12/23 11:33:49;;;;;;;5.27;1.37;;;9.40;99.90;;;;;;5073831;28;20185;-42
2023/12/23 11:36:25;;;;;;;7.30;1.50;;;9.50;99.90;;;;;;5073273;28;20168;-44
2023/12/23 11:39:23;;;;;;;8.00;1.67;;;9.50;99.90;;;;;;5073485;28;20179;-43
2023/12/23 11:41:50;;;;;;;4.63;2.07;;;9.50;99.90;;;;;;5058117;28;20188;-43
2023/12/23 11:44:19;;;;;;;6.10;1.70;;;9.50;99.90;;;;;;5073121;28;20196;-43
2023/12/23 11:46:48;;;;;;;6.17;2.00;;;9.50;99.90;;;;;;5073683;28;20265;-43
2023/12/23 11:49:14;;;;;;;4.70;1.30;;;9.50;99.90;;;;;;5073299;28;20211;-43
2023/12/23 11:51:40;;;;;;;12.57;3.20;;;9.60;99.90;;;;;;5077345;28;20520;-42
2023/12/23 11:54:08;;;;;;;3.43;1.30;;;9.60;99.90;;;;;;5078873;28;20538;-42
2023/12/23 11:56:36;;;;;;;6.03;1.37;;;9.70;99.90;;;;;;5077733;28;20155;-43
2023/12/23 11:59:12;;;;;;;5.73;1.67;;;9.70;99.90;;;;;;5076536;28;20167;-44
2023/12/23 12:01:37;;;;;;;3.87;1.27;;;9.70;99.90;;;;;;5076476;28;20171;-43
2023/12/23 12:04:06;;;;;;;3.17;1.63;;;9.80;99.90;;;;;;5077108;28;20258;-42
2023/12/23 12:06:33;;;;;;;6.63;1.40;;;9.70;99.90;;;;;;5076432;28;20232;-41
2023/12/23 12:09:00;;;;;;;3.63;1.47;;;9.80;99.90;;;;;;5076275;28;20192;-42
2023/12/23 12:11:26;;;;;;;2.30;1.00;;;9.80;99.90;;;;;;5076409;28;20196;-43
2023/12/23 12:14:01;;;;;;;1.33;1.10;;;9.80;99.90;;;;;;5053533;28;20623;-43
2023/12/23 12:16:28;;;;;;;3.10;1.23;;;9.80;99.90;;;;;;5076749;28;20500;-42
2023/12/23 12:18:55;;;;;;;5.23;1.07;;;9.80;99.90;;;;;;5076249;28;20246;-41
2023/12/23 12:21:21;;;;;;;4.50;1.20;;;9.90;99.90;;;;;;5076130;28;20190;-44
2023/12/23 12:23:49;;;;;;;5.57;1.87;;;9.90;99.90;;;;;;5076148;28;20546;-42
2023/12/23 12:26:20;;;;;;;7.07;1.83;;;9.90;99.90;;;;;;5076589;28;20185;-42
2023/12/23 12:28:48;;;;;;;6.30;1.47;;;9.90;99.90;;;;;;5076275;28;20203;-43
2023/12/23 12:31:14;;;;;;;8.93;1.70;;;9.90;99.90;;;;;;5076563;28;20254;-44
2023/12/23 12:33:42;;;;;;;2.20;1.10;;;9.90;99.90;;;;;;5076085;28;20175;-43
2023/12/23 12:36:14;;;;;;;2.23;0.93;;;10.00;99.90;;;;;;5076012;28;20187;-43
2023/12/23 12:38:46;;;;;;;3.23;1.03;;;10.00;99.90;;;;;;5076183;28;20190;-43
2023/12/23 12:41:13;;;;;;;2.40;1.10;;;10.10;99.90;;;;;;5076238;28;20211;-43
2023/12/23 12:47:02;;;;;;;0.87;0.43;;;10.10;99.90;;;;;;5075854;28;20195;-41
2023/12/23 12:49:28;;;;;;;1.23;1.00;;;10.10;99.90;;;;;;5075451;28;20561;-42
2023/12/23 12:51:54;;;;;;;3.40;1.00;;;10.10;99.90;;;;;;5075595;28;20294;-43
2023/12/23 12:54:24;;;;;;;5.60;1.30;;;10.20;99.90;;;;;;5075629;28;20270;-42
2023/12/23 12:56:50;;;;;;;6.40;1.27;;;10.20;99.90;;;;;;5040986;28;20553;-43
2023/12/23 12:59:16;;;;;;;4.70;1.17;;;10.20;99.90;;;;;;5078016;28;20211;-43
2023/12/23 13:01:42;;;;;;;3.07;1.63;;;10.20;99.90;;;;;;5089834;28;20190;-44
2023/12/23 13:04:08;;;;;;;2.23;1.07;;;10.20;99.90;;;;;;5090155;28;20586;-43
2023/12/23 13:06:34;;;;;;;7.17;1.60;;;10.20;99.90;;;;;;5089781;28;20193;-42
2023/12/23 13:08:59;;;;;;;5.23;1.30;;;10.20;99.90;;;;;;5079623;28;20290;-43
2023/12/23 13:11:25;;;;;;;6.50;1.20;;;10.10;99.90;;;;;;5076973;28;20171;-43
2023/12/23 13:13:55;;;;;;;1.67;1.00;;;10.10;99.90;;;;;;5058343;28;20219;-42
2023/12/23 13:16:23;;;;;;;4.73;1.57;;;10.10;99.90;;;;;;5075904;28;20167;-43
2023/12/23 13:19:01;;;;;;;2.63;1.50;;;10.10;99.90;;;;;;5075663;28;20214;-43
2023/12/23 13:21:27;;;;;;;2.60;1.10;;;10.10;99.90;;;;;;5074730;28;20555;-43
2023/12/23 13:24:49;;;;;;;5.00;1.60;;;10.10;99.90;;;;;;5075666;28;20180;-44
2023/12/23 13:27:18;;;;;;;4.50;1.43;;;10.10;99.90;;;;;;5075761;28;20251;-43
2023/12/23 13:29:46;;;;;;;4.93;1.83;;;10.10;99.90;;;;;;5074511;28;20699;-44
2023/12/23 13:32:13;;;;;;;8.93;1.37;;;10.10;99.90;;;;;;5075202;28;20183;-44
2023/12/23 13:34:39;;;;;;;5.43;1.20;;;10.10;99.90;;;;;;5057483;28;20667;-43